Time;durP1;ratioP1;P1;durP2;ratioP2;P2;SDS_P1;SDS_P2;PMS_P1;PMS_P2;Temp;Humidity;BMP_temperature;BMP_pressure;BME280_temperature;BME280_humidity;BME280_pressure;Samples;Min_cycle;Max_cycle;Signal;HPM_P1;HPM_P2
2022/10/08 00:02:09;;;;;;;3.97;3.67;;;;;;;21.20;39.30;95780.88;6112052;28;103825;-68
2022/10/08 00:05:13;;;;;;;3.43;2.90;;;;;;;21.18;38.94;95787.56;6110792;28;105131;-68
2022/10/08 00:08:16;;;;;;;3.43;3.23;;;;;;;21.14;38.92;95784.63;6111291;28;103336;-68
2022/10/08 00:11:21;;;;;;;3.00;2.80;;;;;;;21.18;38.95;95791.00;6101019;28;102914;-68
2022/10/08 00:14:24;;;;;;;3.50;3.20;;;;;;;21.15;38.96;95788.09;6112189;28;102967;-68
2022/10/08 00:17:29;;;;;;;3.87;3.17;;;;;;;21.13;38.75;95783.06;6110563;28;103250;-69
2022/10/08 00:20:32;;;;;;;4.60;3.33;;;;;;;21.12;39.03;95781.47;6106807;28;102836;-68
2022/10/08 00:23:35;;;;;;;3.27;2.97;;;;;;;21.11;38.96;95782.56;6106384;28;103352;-68
2022/10/08 00:26:39;;;;;;;3.53;3.17;;;;;;;21.12;38.46;95778.81;6110362;28;103276;-68
2022/10/08 00:29:46;;;;;;;3.70;3.40;;;;;;;21.10;38.88;95777.50;6110319;28;103081;-69
2022/10/08 00:32:50;;;;;;;3.23;3.03;;;;;;;21.10;38.66;95775.63;6098986;28;103422;-67
2022/10/08 00:35:55;;;;;;;3.50;3.20;;;;;;;21.09;38.93;95770.59;6110291;28;103012;-68
2022/10/08 00:39:00;;;;;;;3.53;3.27;;;;;;;21.07;38.70;95770.88;6110761;28;103264;-68
2022/10/08 00:42:03;;;;;;;2.87;2.67;;;;;;;21.07;38.68;95765.56;6110656;28;103091;-68
2022/10/08 00:45:12;;;;;;;3.47;3.17;;;;;;;21.07;38.83;95765.56;6099997;28;104045;-68
2022/10/08 00:48:24;;;;;;;2.83;2.63;;;;;;;21.01;38.98;95758.69;6111645;28;102876;-69
2022/10/08 00:51:28;;;;;;;3.33;3.13;;;;;;;21.06;38.95;95758.66;6109929;28;104062;-69
2022/10/08 00:54:31;;;;;;;3.63;2.70;;;;;;;21.08;38.62;95755.72;6109382;28;103881;-67
2022/10/08 00:57:35;;;;;;;3.43;3.13;;;;;;;21.03;39.10;95748.56;6103987;28;102906;-67
2022/10/08 01:00:39;;;;;;;3.30;2.97;;;;;;;21.03;38.56;95750.41;6108621;28;103860;-68
2022/10/08 01:03:43;;;;;;;4.50;3.80;;;;;;;21.03;39.10;95748.56;6109289;28;103061;-68
2022/10/08 01:06:55;;;;;;;3.70;3.40;;;;;;;21.00;39.07;95748.28;6099926;28;103112;-67
2022/10/08 01:10:04;;;;;;;5.20;3.30;;;;;;;21.00;39.04;95742.97;6110400;28;103202;-68
2022/10/08 01:13:19;;;;;;;3.33;3.10;;;;;;;21.00;38.72;95735.00;6110226;28;103505;-68
2022/10/08 01:16:32;;;;;;;4.30;3.30;;;;;;;21.01;38.84;95732.06;6110175;28;103473;-68
2022/10/08 01:20:10;;;;;;;3.73;3.43;;;;;;;21.00;38.87;95730.47;6098383;28;102951;-69
2022/10/08 01:23:29;;;;;;;3.67;3.17;;;;;;;20.98;38.87;95726.50;6095966;28;103285;-68
2022/10/08 01:26:44;;;;;;;3.90;3.60;;;;;;;20.97;38.82;95717.72;6109728;28;103571;-67
2022/10/08 01:29:50;;;;;;;4.00;3.63;;;;;;;20.97;38.72;95712.41;6099153;28;106217;-68
2022/10/08 01:33:00;;;;;;;3.93;3.63;;;;;;;20.96;38.88;95710.03;6109169;28;103324;-68
2022/10/08 01:36:04;;;;;;;3.70;3.40;;;;;;;20.97;38.84;95712.41;6110074;28;103939;-68
2022/10/08 01:39:12;;;;;;;3.80;3.50;;;;;;;20.93;38.76;95706.84;6110212;28;104927;-67
2022/10/08 01:42:17;;;;;;;3.70;3.40;;;;;;;20.93;38.84;95701.53;6100126;28;103984;-68
2022/10/08 01:45:26;;;;;;;3.90;3.60;;;;;;;20.93;38.85;95698.88;6109984;28;102905;-67
2022/10/08 01:48:34;;;;;;;4.20;3.90;;;;;;;20.91;38.95;95698.38;6110227;28;103650;-69
2022/10/08 01:51:44;;;;;;;4.43;4.03;;;;;;;20.90;38.53;95696.00;6105902;28;105381;-68
2022/10/08 01:54:49;;;;;;;4.00;3.70;;;;;;;20.96;38.91;95691.41;6104091;28;103229;-69
2022/10/08 01:57:56;;;;;;;3.80;3.50;;;;;;;20.92;38.70;95688.53;6109851;28;104341;-67
2022/10/08 02:01:08;;;;;;;3.47;3.17;;;;;;;20.90;38.42;95680.81;6110547;28;103339;-67
2022/10/08 02:07:35;;;;;;;4.10;3.70;;;;;;;20.91;38.69;95686.94;6109044;28;103118;-69
2022/10/08 02:10:39;;;;;;;4.33;3.97;;;;;;;20.90;38.88;95694.13;6109708;28;103848;-68
2022/10/08 02:13:43;;;;;;;4.30;4.00;;;;;;;20.89;38.60;95702.38;6110181;28;103177;-68
2022/10/08 02:16:53;;;;;;;4.10;3.80;;;;;;;20.90;38.66;95706.63;6098837;28;103477;-68
2022/10/08 02:20:00;;;;;;;3.47;3.17;;;;;;;20.87;38.97;95700.00;6108976;28;103370;-68
2022/10/08 02:23:08;;;;;;;5.10;3.80;;;;;;;20.85;38.67;95699.50;6109271;28;102902;-68
2022/10/08 02:26:17;;;;;;;4.30;4.00;;;;;;;20.85;38.80;95704.03;6103873;28;104043;-69
2022/10/08 02:29:26;;;;;;;4.37;4.07;;;;;;;20.84;38.89;95707.78;6104061;28;103035;-68
2022/10/08 02:32:36;;;;;;;4.23;3.83;;;;;;;20.85;38.95;95698.72;6108595;28;103013;-68
2022/10/08 02:35:45;;;;;;;4.60;3.53;;;;;;;20.83;38.72;95693.66;6108481;28;103247;-69
2022/10/08 02:38:52;;;;;;;3.83;3.53;;;;;;;20.82;38.81;95705.38;6098709;28;103551;-69
2022/10/08 02:41:59;;;;;;;4.30;3.90;;;;;;;20.83;38.90;95700.84;6104457;28;103230;-68
2022/10/08 02:45:10;;;;;;;4.20;3.80;;;;;;;20.80;38.82;95702.19;6110113;28;104072;-69
2022/10/08 02:48:20;;;;;;;4.50;4.07;;;;;;;20.82;38.48;95705.38;6107453;28;103137;-68
2022/10/08 02:51:26;;;;;;;4.53;4.23;;;;;;;20.79;38.84;95707.78;6100111;28;103552;-70
2022/10/08 02:54:35;;;;;;;4.50;4.10;;;;;;;20.78;39.14;95703.56;6108503;28;106535;-68
2022/10/08 02:57:43;;;;;;;4.60;4.30;;;;;;;20.81;38.75;95697.66;6111935;28;103275;-69
2022/10/08 03:00:52;;;;;;;4.77;4.37;;;;;;;20.77;38.82;95700.09;6100782;28;103332;-68
2022/10/08 03:04:02;;;;;;;4.97;4.57;;;;;;;20.78;38.60;95699.03;6100699;28;104062;-68
2022/10/08 03:07:06;;;;;;;5.30;4.90;;;;;;;20.77;38.67;95692.13;6111206;28;103866;-68
2022/10/08 03:10:10;;;;;;;5.30;4.90;;;;;;;20.78;38.75;95698.22;6112426;28;103182;-67
2022/10/08 03:13:14;;;;;;;6.07;4.80;;;;;;;20.77;38.89;95700.09;6086636;28;103963;-68
2022/10/08 03:16:22;;;;;;;5.40;5.00;;;;;;;20.75;38.75;95694.28;6113489;28;103213;-68
2022/10/08 03:19:28;;;;;;;4.90;4.50;;;;;;;20.77;38.59;95694.78;6112933;28;103063;-67
2022/10/08 03:22:31;;;;;;;6.13;5.53;;;;;;;20.78;38.55;95691.03;6113018;28;103399;-68
2022/10/08 03:25:34;;;;;;;6.20;5.70;;;;;;;20.75;38.95;95688.16;6101832;28;103110;-70
2022/10/08 03:28:37;;;;;;;6.10;5.50;;;;;;;20.72;38.79;95684.19;6113027;28;103217;-68
2022/10/08 03:31:40;;;;;;;6.37;5.87;;;;;;;20.73;38.70;95685.00;6112614;28;104033;-68
2022/10/08 03:34:44;;;;;;;6.77;6.20;;;;;;;20.70;38.88;95686.34;6107584;28;103379;-67
2022/10/08 03:37:47;;;;;;;6.30;5.80;;;;;;;20.73;38.77;95695.63;6105678;28;103641;-68
2022/10/08 03:40:54;;;;;;;6.67;6.00;;;;;;;20.70;38.76;95689.00;6111690;28;103057;-68
2022/10/08 03:43:58;;;;;;;6.90;6.20;;;;;;;20.68;38.83;95685.84;6111799;28;103218;-69
2022/10/08 03:47:01;;;;;;;6.43;5.80;;;;;;;20.70;38.79;95689.00;6100297;28;104281;-68
2022/10/08 03:50:07;;;;;;;6.60;6.00;;;;;;;20.68;38.74;95685.84;6110742;28;104299;-67
2022/10/08 03:53:10;;;;;;;6.87;6.30;;;;;;;20.70;38.71;95682.91;6112281;28;102936;-68
2022/10/08 03:56:15;;;;;;;10.50;6.80;;;;;;;20.67;38.81;95681.59;6110793;28;103424;-70
2022/10/08 03:59:18;;;;;;;6.83;6.23;;;;;;;20.68;38.66;95688.50;6101335;28;104870;-68
2022/10/08 04:02:21;;;;;;;6.63;6.03;;;;;;;20.68;38.79;95685.06;6110986;28;105751;-69
2022/10/08 04:05:25;;;;;;;7.90;6.50;;;;;;;20.68;38.91;95688.50;6111975;28;103148;-68
2022/10/08 04:08:29;;;;;;;6.40;5.90;;;;;;;20.67;38.77;95683.44;6109970;28;103076;-69
2022/10/08 04:11:32;;;;;;;7.63;7.03;;;;;;;20.66;38.57;95690.63;6101553;28;103188;-69
2022/10/08 04:14:35;;;;;;;7.20;6.60;;;;;;;20.67;38.79;95697.56;6111700;28;103253;-68
2022/10/08 04:17:38;;;;;;;7.50;6.80;;;;;;;20.65;38.56;95693.56;6111175;28;103754;-67
2022/10/08 04:20:43;;;;;;;7.23;6.63;;;;;;;20.65;38.89;95693.56;6106443;28;103737;-68
2022/10/08 04:23:48;;;;;;;8.30;7.60;;;;;;;20.66;38.71;95689.84;6107126;28;103312;-67
2022/10/08 04:26:51;;;;;;;7.87;7.17;;;;;;;20.63;38.68;95697.31;6111628;28;103405;-68
2022/10/08 04:29:54;;;;;;;7.53;6.93;;;;;;;20.66;38.66;95684.50;6111487;28;103218;-70
2022/10/08 04:32:57;;;;;;;8.60;7.80;;;;;;;20.65;38.91;95689.03;6096277;28;103219;-67
2022/10/08 04:36:06;;;;;;;7.90;7.20;;;;;;;20.65;39.00;95683.72;6109987;28;103183;-68
2022/10/08 04:39:09;;;;;;;8.80;8.00;;;;;;;20.63;39.25;95681.34;6108423;28;103479;-70
2022/10/08 04:42:12;;;;;;;8.17;7.33;;;;;;;20.63;38.80;95683.22;6106292;28;105430;-68
2022/10/08 04:45:16;;;;;;;9.00;8.20;;;;;;;20.65;39.15;95690.91;6099804;28;103175;-68
2022/10/08 04:48:19;;;;;;;8.07;7.40;;;;;;;20.60;38.97;95686.44;6109828;28;103636;-68
2022/10/08 04:51:24;;;;;;;8.23;7.47;;;;;;;20.60;39.12;95686.44;6110958;28;103220;-68
2022/10/08 04:54:27;;;;;;;8.57;7.90;;;;;;;20.59;39.05;95690.97;6110237;28;103849;-69
2022/10/08 04:57:31;;;;;;;9.03;8.23;;;;;;;20.62;38.72;95689.59;6098422;28;103213;-68
2022/10/08 05:00:35;;;;;;;8.77;7.97;;;;;;;20.60;38.73;95681.91;6108775;28;103093;-69
2022/10/08 05:03:40;;;;;;;10.03;9.17;;;;;;;20.59;39.01;95685.66;6109087;28;103226;-69
2022/10/08 05:06:44;;;;;;;10.10;9.30;;;;;;;20.58;38.66;95684.06;6104402;28;103281;-69
2022/10/08 05:09:47;;;;;;;23.90;21.63;;;;;;;20.55;38.72;95694.47;6101831;28;103097;-69
2022/10/08 05:12:50;;;;;;;45.03;40.80;;;;;;;20.51;38.52;95688.13;6109961;28;103386;-68
2022/10/08 05:15:53;;;;;;;24.90;22.40;;;;;;;20.48;38.03;95691.31;6110081;28;103097;-68
2022/10/08 05:18:58;;;;;;;17.77;16.03;;;;;;;20.46;38.28;95693.47;6097810;28;103174;-69
2022/10/08 05:22:02;;;;;;;15.73;14.07;;;;;;;20.43;37.68;95697.47;6110516;28;103071;-69
2022/10/08 05:25:06;;;;;;;19.23;17.20;;;;;;;20.45;37.67;95692.69;6109988;28;103166;-69
2022/10/08 05:28:09;;;;;;;36.57;32.83;;;;;;;20.42;37.90;95701.22;6107109;28;106340;-68
2022/10/08 05:31:13;;;;;;;36.23;32.83;;;;;;;20.48;37.74;95701.94;6099707;28;105902;-68
2022/10/08 05:34:16;;;;;;;48.83;44.27;;;;;;;20.49;37.63;95708.84;6101117;28;103865;-68
2022/10/08 05:37:21;;;;;;;40.43;36.80;;;;;;;20.50;37.82;95702.47;6106580;28;103243;-69
2022/10/08 05:40:24;;;;;;;24.57;22.17;;;;;;;20.26;37.61;95703.19;6099493;28;104460;-66
2022/10/08 05:43:27;;;;;;;18.07;16.57;;;;;;;20.13;38.18;95709.09;6098017;28;103262;-68
2022/10/08 05:46:32;;;;;;;17.47;15.77;;;;;;;20.30;37.99;95708.75;6109970;28;103383;-69
2022/10/08 05:49:36;;;;;;;14.83;13.20;;;;;;;20.34;37.62;95704.47;6111150;28;103291;-67
2022/10/08 05:52:40;;;;;;;16.97;13.70;;;;;;;20.34;38.05;95707.13;6107611;28;103203;-67
2022/10/08 05:55:43;;;;;;;15.90;11.77;;;;;;;20.33;37.86;95702.88;6104571;28;103018;-68
2022/10/08 05:58:47;;;;;;;16.63;14.83;;;;;;;20.38;38.14;95700.19;6107947;28;103676;-68
2022/10/08 06:01:51;;;;;;;21.30;19.20;;;;;;;20.43;38.37;95694.81;6107981;28;103774;-68
2022/10/08 06:04:54;;;;;;;15.20;13.50;;;;;;;20.51;37.83;95699.56;6098037;28;104293;-69
2022/10/08 06:07:58;;;;;;;13.70;12.30;;;;;;;20.56;37.79;95699.50;6107152;28;103082;-68
2022/10/08 06:11:02;;;;;;;13.03;11.03;;;;;;;20.63;38.03;95691.19;6106585;28;103640;-67
2022/10/08 06:14:06;;;;;;;12.83;10.93;;;;;;;20.73;38.02;95698.28;6108500;28;103615;-67
2022/10/08 06:17:09;;;;;;;18.97;10.37;;;;;;;20.60;38.23;95697.06;6096987;28;104118;-68
2022/10/08 06:20:12;;;;;;;19.10;9.33;;;;;;;20.73;38.62;95704.41;6109024;28;105960;-68
2022/10/08 06:23:17;;;;;;;12.67;10.00;;;;;;;20.85;38.34;95696.84;6108138;28;103235;-69
2022/10/08 06:26:21;;;;;;;15.13;10.50;;;;;;;20.93;38.99;95704.19;6108375;28;103311;-68
2022/10/08 06:29:24;;;;;;;11.47;10.30;;;;;;;21.04;39.03;95709.44;6090352;28;104252;-66
2022/10/08 06:32:27;;;;;;;13.03;11.50;;;;;;;21.14;39.11;95698.69;6110736;28;103272;-66
2022/10/08 06:35:30;;;;;;;11.50;10.40;;;;;;;21.24;39.00;95701.25;6113496;28;104113;-67
2022/10/08 06:38:35;;;;;;;12.40;10.73;;;;;;;21.34;38.87;95695.81;6108190;28;103283;-67
2022/10/08 06:41:38;;;;;;;11.27;10.00;;;;;;;21.42;37.99;95700.50;6107498;28;105845;-67
2022/10/08 06:44:41;;;;;;;10.60;9.50;;;;;;;21.50;37.97;95702.50;6112774;28;103302;-67
2022/10/08 06:47:44;;;;;;;9.80;8.80;;;;;;;21.58;37.97;95700.31;6112056;28;103104;-67
2022/10/08 06:50:47;;;;;;;8.80;7.90;;;;;;;21.64;37.71;95699.16;6100470;28;104241;-67
2022/10/08 06:53:55;;;;;;;8.00;7.20;;;;;;;21.69;37.68;95694.56;6110352;28;103314;-67
2022/10/08 06:57:03;;;;;;;8.20;7.30;;;;;;;21.74;36.96;95697.16;6111146;28;103753;-67
2022/10/08 07:00:08;;;;;;;7.10;6.40;;;;;;;21.81;37.53;95694.13;6110702;28;103322;-66
2022/10/08 07:03:11;;;;;;;6.60;6.00;;;;;;;21.85;37.32;95689.88;6100606;28;103719;-67
2022/10/08 07:06:14;;;;;;;7.60;6.00;;;;;;;21.89;36.75;95693.53;6111939;28;103114;-67
2022/10/08 07:09:18;;;;;;;6.93;6.17;;;;;;;21.96;36.82;95685.16;6113127;28;103240;-67
2022/10/08 07:12:21;;;;;;;7.30;6.00;;;;;;;22.00;37.23;95686.94;6108838;28;103138;-67
2022/10/08 07:15:24;;;;;;;7.20;6.53;;;;;;;22.06;36.73;95693.03;6106703;28;103267;-67
2022/10/08 07:18:27;;;;;;;9.50;8.60;;;;;;;22.10;36.55;95686.81;6113135;28;103154;-67
2022/10/08 07:21:31;;;;;;;10.87;9.97;;;;;;;22.18;37.15;95689.91;6112640;28;103317;-67
2022/10/08 07:24:35;;;;;;;11.10;10.10;;;;;;;22.21;37.08;95687.47;6101520;28;103835;-67
2022/10/08 07:27:38;;;;;;;11.83;10.33;;;;;;;22.26;36.95;95689.25;6113366;28;103506;-68
2022/10/08 07:30:46;;;;;;;10.43;9.27;;;;;;;22.30;36.77;95688.38;6113092;28;102844;-67
2022/10/08 07:33:50;;;;;;;10.37;9.23;;;;;;;22.32;36.88;95688.06;6113050;28;103587;-67
2022/10/08 07:36:53;;;;;;;9.63;8.50;;;;;;;22.37;36.74;95690.69;6101009;28;105687;-68
2022/10/08 07:39:57;;;;;;;9.97;9.07;;;;;;;22.41;36.85;95686.34;6112713;28;103463;-68
2022/10/08 07:43:01;;;;;;;9.30;8.50;;;;;;;22.41;36.91;95681.00;6111369;28;103104;-67
2022/10/08 07:46:06;;;;;;;9.27;8.47;;;;;;;22.47;37.10;95687.84;6112486;28;104202;-67
2022/10/08 07:49:09;;;;;;;9.20;8.13;;;;;;;22.49;37.00;95683.00;6103788;28;104505;-67
2022/10/08 07:52:12;;;;;;;9.40;8.57;;;;;;;22.53;37.34;95673.34;6112130;28;103516;-67
2022/10/08 07:55:16;;;;;;;12.07;11.07;;;;;;;22.54;37.31;95666.94;6112574;28;102755;-66
2022/10/08 07:58:19;;;;;;;13.97;12.47;;;;;;;22.58;37.10;95673.28;6101530;28;103212;-67
2022/10/08 08:01:27;;;;;;;16.77;15.17;;;;;;;22.60;37.11;95670.31;6112236;28;103458;-67
2022/10/08 08:04:30;;;;;;;16.87;15.30;;;;;;;22.61;37.17;95667.34;6112137;28;103239;-67
2022/10/08 08:07:33;;;;;;;16.77;15.30;;;;;;;22.64;37.60;95673.97;6111527;28;103438;-67
2022/10/08 08:10:37;;;;;;;17.23;15.07;;;;;;;22.65;37.52;95660.34;6101800;28;103395;-67
2022/10/08 08:13:42;;;;;;;15.70;14.30;;;;;;;22.67;37.57;95660.84;6111054;28;103048;-67
2022/10/08 08:16:45;;;;;;;17.70;16.07;;;;;;;22.70;37.77;95657.59;6111638;28;104353;-67
2022/10/08 08:19:48;;;;;;;16.50;14.97;;;;;;;22.74;37.22;95657.81;6112107;28;103181;-67
2022/10/08 08:22:51;;;;;;;15.67;14.17;;;;;;;22.76;37.67;95649.50;6102146;28;103193;-67
2022/10/08 08:25:55;;;;;;;16.80;15.10;;;;;;;22.77;37.45;95653.75;6111540;28;103119;-67
2022/10/08 08:29:00;;;;;;;15.13;13.83;;;;;;;22.81;37.76;95644.84;6111053;28;103140;-67
2022/10/08 08:32:04;;;;;;;15.93;14.60;;;;;;;22.83;37.86;95641.88;6106881;28;103232;-67
2022/10/08 08:35:07;;;;;;;17.93;16.33;;;;;;;22.86;37.26;95650.13;6106164;28;103082;-67
2022/10/08 08:38:10;;;;;;;16.93;15.53;;;;;;;22.91;37.44;95646.56;6110906;28;103638;-67
2022/10/08 08:41:32;;;;;;;16.03;14.63;;;;;;;22.91;37.71;95647.34;6111547;28;103234;-67
2022/10/08 08:44:39;;;;;;;17.20;15.70;;;;;;;22.91;38.03;95639.34;6097163;28;103246;-67
2022/10/08 08:47:48;;;;;;;16.30;14.90;;;;;;;22.93;37.52;95639.03;6110889;28;105820;-66
2022/10/08 08:50:55;;;;;;;14.00;12.80;;;;;;;22.77;38.15;95629.72;6115976;28;105920;-67
2022/10/08 08:53:59;;;;;;;11.50;10.40;;;;;;;22.63;38.75;95627.84;6108784;28;106303;-66
2022/10/08 08:57:15;;;;;;;10.10;9.30;;;;;;;22.53;38.81;95628.00;6098536;28;103457;-66
2022/10/08 09:00:21;;;;;;;10.03;9.03;;;;;;;22.43;38.51;95625.50;6110525;28;103547;-65
2022/10/08 09:03:28;;;;;;;10.73;8.97;;;;;;;22.37;38.50;95622.16;6110898;28;103306;-67
2022/10/08 09:06:34;;;;;;;9.70;8.80;;;;;;;22.33;38.97;95610.47;6104918;28;102759;-66
2022/10/08 09:09:40;;;;;;;9.80;8.90;;;;;;;22.32;38.70;95616.88;6105972;28;103221;-67
2022/10/08 09:12:45;;;;;;;9.03;8.27;;;;;;;22.30;38.41;95616.38;6108632;28;102848;-66
2022/10/08 09:15:50;;;;;;;9.37;8.10;;;;;;;22.28;38.64;95617.75;6107919;28;102770;-66
2022/10/08 09:18:53;;;;;;;8.60;7.80;;;;;;;22.25;38.47;95607.69;6098434;28;103294;-66
2022/10/08 09:21:56;;;;;;;7.87;7.17;;;;;;;22.25;38.54;95607.69;6107631;28;103365;-67
2022/10/08 09:25:00;;;;;;;8.73;7.97;;;;;;;22.24;38.68;95598.09;6109152;28;103778;-67
2022/10/08 09:28:05;;;;;;;8.33;7.73;;;;;;;22.24;38.83;95593.56;6110151;28;103248;-68
2022/10/08 09:31:18;;;;;;;8.30;7.60;;;;;;;22.21;38.43;95585.38;6100266;28;105078;-68
2022/10/08 09:34:21;;;;;;;8.20;7.50;;;;;;;22.23;38.57;95591.19;6110266;28;103371;-67
2022/10/08 09:37:26;;;;;;;7.87;7.13;;;;;;;22.24;38.54;95588.22;6109867;28;103080;-67
2022/10/08 09:40:29;;;;;;;7.67;7.07;;;;;;;22.24;38.20;95582.91;6105261;28;102848;-68
2022/10/08 09:43:34;;;;;;;7.93;7.23;;;;;;;22.20;38.46;95576.59;6105818;28;106142;-66
2022/10/08 09:46:39;;;;;;;7.87;7.00;;;;;;;22.21;38.14;95585.38;6109822;28;102676;-65
2022/10/08 09:49:43;;;;;;;7.20;6.60;;;;;;;22.24;38.22;95569.56;6110082;28;103087;-67
2022/10/08 09:52:50;;;;;;;6.80;6.20;;;;;;;22.23;37.83;95567.19;6099010;28;105555;-68
2022/10/08 09:55:57;;;;;;;7.00;6.40;;;;;;;22.23;38.27;95569.88;6110283;28;103936;-67
2022/10/08 09:59:05;;;;;;;7.40;6.70;;;;;;;22.23;38.38;95565.31;6109053;28;103449;-66
2022/10/08 10:02:27;;;;;;;6.70;6.07;;;;;;;22.23;37.90;95562.66;6110064;28;103228;-65
2022/10/08 10:05:33;;;;;;;6.47;6.07;;;;;;;22.25;38.23;95552.50;6097516;28;103451;-66
2022/10/08 10:08:56;;;;;;;6.90;6.20;;;;;;;22.25;37.97;95544.50;6109887;28;103770;-67
2022/10/08 10:12:03;;;;;;;7.03;6.43;;;;;;;22.22;38.32;95554.97;6109814;28;105009;-67
2022/10/08 10:15:14;;;;;;;7.40;6.80;;;;;;;22.23;37.69;95544.00;6098705;28;103528;-67
2022/10/08 10:18:22;;;;;;;6.73;6.23;;;;;;;22.19;38.14;95531.56;6108903;28;103536;-67
2022/10/08 10:21:35;;;;;;;6.60;6.00;;;;;;;22.20;38.15;95525.94;6109213;28;103217;-66
2022/10/08 10:24:57;;;;;;;6.00;5.60;;;;;;;22.20;37.77;95530.47;6109517;28;103079;-67
2022/10/08 10:28:06;;;;;;;6.30;5.80;;;;;;;22.18;37.92;95528.09;6098246;28;103434;-67
2022/10/08 10:31:16;;;;;;;6.73;6.23;;;;;;;22.18;38.18;95525.44;6109635;28;103112;-66
2022/10/08 10:34:23;;;;;;;6.60;5.87;;;;;;;22.18;38.33;95516.63;6109254;28;103026;-68
2022/10/08 10:37:35;;;;;;;6.10;5.60;;;;;;;22.15;38.07;95523.34;6099541;28;103481;-65
2022/10/08 10:40:44;;;;;;;6.73;6.23;;;;;;;22.14;38.17;95511.09;6108694;28;103116;-67
2022/10/08 10:43:51;;;;;;;5.90;5.30;;;;;;;22.11;38.38;95507.16;6109053;28;103286;-66
2022/10/08 10:46:58;;;;;;;6.00;5.50;;;;;;;22.10;38.02;95502.91;6109205;28;103417;-66
2022/10/08 10:50:02;;;;;;;6.20;5.67;;;;;;;22.09;38.19;95496.00;6095856;28;103119;-68
2022/10/08 10:53:15;;;;;;;6.43;5.83;;;;;;;22.07;38.11;95487.50;6109379;28;106279;-66
2022/10/08 10:56:21;;;;;;;5.83;5.43;;;;;;;22.06;38.59;95477.94;6108339;28;103260;-66
2022/10/08 10:59:37;;;;;;;6.43;5.93;;;;;;;22.04;38.33;95479.31;6106058;28;103018;-67
2022/10/08 11:02:46;;;;;;;5.50;5.10;;;;;;;22.02;38.36;95473.50;6103797;28;103261;-65
2022/10/08 11:05:58;;;;;;;5.80;5.30;;;;;;;22.01;38.49;95469.22;6107809;28;102824;-65
2022/10/08 11:09:10;;;;;;;6.50;5.90;;;;;;;21.99;38.30;95464.19;6109574;28;105725;-68
2022/10/08 11:12:30;;;;;;;5.30;4.90;;;;;;;21.96;38.82;95459.44;6097888;28;103748;-67
2022/10/08 11:15:41;;;;;;;5.50;5.10;;;;;;;21.95;38.77;95462.41;6109356;28;105145;-68
2022/10/08 11:18:50;;;;;;;5.97;5.47;;;;;;;21.94;38.39;95458.16;6111034;28;103004;-69
2022/10/08 11:22:02;;;;;;;5.77;5.30;;;;;;;21.93;38.22;95451.25;6110651;28;103101;-67
2022/10/08 11:25:19;;;;;;;5.60;4.73;;;;;;;21.90;38.47;95447.31;6107310;28;105251;-67
2022/10/08 11:28:32;;;;;;;5.00;4.60;;;;;;;21.89;38.71;95437.75;6112482;28;103104;-66
2022/10/08 11:31:41;;;;;;;5.40;4.90;;;;;;;21.89;38.58;95434.28;6113304;28;105832;-67
2022/10/08 11:34:52;;;;;;;5.00;4.60;;;;;;;21.88;38.08;95430.03;6101880;28;103285;-67
2022/10/08 11:38:03;;;;;;;5.40;4.90;;;;;;;21.86;38.39;95421.56;6112253;28;103103;-67
2022/10/08 11:41:15;;;;;;;5.30;4.87;;;;;;;21.86;38.20;95421.56;6111947;28;103091;-65
2022/10/08 11:44:19;;;;;;;5.57;5.07;;;;;;;21.85;38.04;95422.66;6112214;28;103393;-67
2022/10/08 11:47:52;;;;;;;5.20;4.70;;;;;;;21.83;38.46;95420.25;6101160;28;103715;-67
2022/10/08 11:51:37;;;;;;;5.70;5.20;;;;;;;21.83;38.51;95411.47;6109878;28;102926;-66
2022/10/08 11:54:41;;;;;;;5.10;4.70;;;;;;;21.82;38.60;95408.00;6111703;28;103288;-70
2022/10/08 11:57:55;;;;;;;5.10;4.70;;;;;;;21.81;38.27;95401.06;6101314;28;105606;-67
2022/10/08 12:01:10;;;;;;;5.07;4.63;;;;;;;21.80;38.51;95396.84;6112119;28;105013;-66
2022/10/08 12:04:20;;;;;;;5.30;4.80;;;;;;;21.78;38.41;95383.81;6110974;28;103253;-66
2022/10/08 12:07:34;;;;;;;5.47;5.07;;;;;;;21.77;38.54;95389.44;6109209;28;103096;-66
2022/10/08 12:10:38;;;;;;;5.03;4.70;;;;;;;21.77;38.96;95384.13;6105739;28;103247;-66
2022/10/08 12:13:41;;;;;;;5.10;4.70;;;;;;;21.77;38.37;95384.13;6112108;28;103532;-67
2022/10/08 12:17:09;;;;;;;5.23;4.90;;;;;;;21.74;38.41;95374.06;6111707;28;103262;-67
2022/10/08 12:20:21;;;;;;;5.50;5.10;;;;;;;21.71;38.66;95370.09;6101567;28;103786;-65
2022/10/08 12:23:42;;;;;;;5.00;4.60;;;;;;;21.72;38.42;95370.91;6112331;28;102818;-66
2022/10/08 12:27:18;;;;;;;4.77;4.37;;;;;;;21.71;38.40;95359.47;6110428;28;103366;-67
2022/10/08 12:30:48;;;;;;;4.97;4.67;;;;;;;21.72;38.77;95361.03;6106096;28;103195;-66
2022/10/08 12:33:57;;;;;;;4.47;4.07;;;;;;;21.71;38.58;95364.78;6110422;28;103054;-66
2022/10/08 12:37:05;;;;;;;5.30;4.90;;;;;;;21.71;38.74;95358.66;6111011;28;103211;-68
2022/10/08 12:40:20;;;;;;;4.77;4.40;;;;;;;21.69;38.48;95350.19;6111292;28;103768;-68
2022/10/08 12:43:33;;;;;;;4.60;4.20;;;;;;;21.70;38.60;95354.44;6100969;28;103195;-67
2022/10/08 12:46:44;;;;;;;4.57;4.17;;;;;;;21.70;38.28;95346.44;6110754;28;103274;-67
2022/10/08 12:49:58;;;;;;;4.63;4.33;;;;;;;21.69;38.26;95339.53;6111482;28;102857;-67
2022/10/08 12:53:02;;;;;;;4.90;4.43;;;;;;;21.68;38.45;95345.94;6106495;28;103312;-66
2022/10/08 12:56:07;;;;;;;4.80;4.33;;;;;;;21.68;38.60;95349.41;6106234;28;106552;-68
2022/10/08 12:59:11;;;;;;;4.47;4.17;;;;;;;21.67;38.66;95344.34;6110114;28;103337;-67
2022/10/08 13:02:33;;;;;;;4.67;4.33;;;;;;;21.68;38.30;95338.75;6110445;28;103295;-67
2022/10/08 13:05:37;;;;;;;5.00;4.60;;;;;;;21.67;38.55;95331.81;6099804;28;106497;-66
2022/10/08 13:08:41;;;;;;;4.17;3.90;;;;;;;21.66;38.51;95334.78;6110737;28;103146;-68
2022/10/08 13:11:46;;;;;;;4.90;4.40;;;;;;;21.67;38.34;95333.69;6110323;28;103227;-67
2022/10/08 13:15:00;;;;;;;4.70;3.90;;;;;;;21.65;38.31;95331.31;6108753;28;105295;-67
2022/10/08 13:18:13;;;;;;;4.33;4.03;;;;;;;21.64;38.38;95320.97;6098147;28;105196;-67
2022/10/08 13:21:35;;;;;;;4.30;3.90;;;;;;;21.74;37.87;95334.88;6107511;28;103496;-67
2022/10/08 13:24:45;;;;;;;5.13;4.60;;;;;;;21.73;38.44;95325.31;6106085;28;103967;-68
2022/10/08 13:28:07;;;;;;;4.67;3.73;;;;;;;21.72;38.71;95323.75;6096220;28;103078;-66
2022/10/08 13:31:22;;;;;;;4.90;4.07;;;;;;;21.78;38.34;95330.53;6105801;28;104367;-67
2022/10/08 13:34:28;;;;;;;5.57;4.00;;;;;;;21.87;39.19;95319.22;6102734;28;103332;-68
2022/10/08 13:37:35;;;;;;;4.80;3.90;;;;;;;21.89;38.86;95317.06;6110294;28;103628;-66
2022/10/08 13:40:38;;;;;;;4.57;4.20;;;;;;;21.88;38.79;95316.28;6097891;28;102992;-69
2022/10/08 13:43:42;;;;;;;5.40;4.20;;;;;;;21.85;38.53;95318.75;6108708;28;103079;-69
2022/10/08 13:46:45;;;;;;;5.40;4.50;;;;;;;21.85;38.67;95311.53;6109321;28;103216;-71
2022/10/08 13:49:49;;;;;;;6.60;3.57;;;;;;;21.99;38.75;95308.84;6109218;28;103159;-66
2022/10/08 13:52:55;;;;;;;7.60;4.20;;;;;;;21.99;38.96;95312.28;6087735;28;103408;-69
2022/10/08 13:55:59;;;;;;;7.17;3.87;;;;;;;22.14;39.42;95311.19;6110482;28;105005;-69
2022/10/08 13:59:03;;;;;;;6.20;3.90;;;;;;;22.20;39.64;95304.69;6108106;28;103813;-69
2022/10/08 14:02:07;;;;;;;7.00;4.83;;;;;;;22.24;40.21;95302.19;6094631;28;103938;-70
2022/10/08 14:05:10;;;;;;;6.13;4.23;;;;;;;22.30;39.96;95296.44;6107421;28;103081;-69
2022/10/08 14:08:17;;;;;;;11.00;3.93;;;;;;;22.31;40.02;95294.56;6107611;28;103039;-69
2022/10/08 14:11:21;;;;;;;7.43;4.03;;;;;;;22.28;40.18;95292.50;6108432;28;104111;-69
2022/10/08 14:14:26;;;;;;;6.07;3.70;;;;;;;22.22;40.25;95293.72;6096175;28;103514;-70
2022/10/08 14:17:29;;;;;;;5.60;3.50;;;;;;;22.16;39.85;95289.56;6109048;28;103195;-68
2022/10/08 14:20:33;;;;;;;5.40;3.50;;;;;;;22.17;39.42;95280.47;6108922;28;105418;-67
2022/10/08 14:23:36;;;;;;;3.87;3.50;;;;;;;22.15;39.36;95280.00;6108581;28;105918;-69
2022/10/08 14:26:40;;;;;;;5.73;4.00;;;;;;;22.15;39.25;95288.00;6098246;28;103040;-69
2022/10/08 14:29:45;;;;;;;7.63;3.60;;;;;;;22.10;39.00;95287.03;6109431;28;103738;-69